Time;durP1;ratioP1;P1;durP2;ratioP2;P2;SDS_P1;SDS_P2;PMS_P1;PMS_P2;Temp;Humidity;BMP_temperature;BMP_pressure;BME280_temperature;BME280_humidity;BME280_pressure;Samples;Min_cycle;Max_cycle;Signal;HPM_P1;HPM_P2
2021/05/13 00:05:55;;;;;;;17.27;11.00;;;;;;;16.25;70.67;97686.81;4240621;83;21151;-84
2021/05/13 00:11:57;;;;;;;14.70;10.58;;;;;;;16.22;70.88;97695.98;4252982;83;21092;-86
2021/05/13 00:17:59;;;;;;;16.07;10.35;;;;;;;16.20;71.00;97692.09;4251256;83;21075;-84
2021/05/13 00:24:01;;;;;;;14.23;9.73;;;;;;;16.14;71.27;97691.90;4256416;83;21064;-84
2021/05/13 00:30:05;;;;;;;15.98;10.63;;;;;;;16.09;71.41;97697.97;4250681;83;21089;-85
2021/05/13 00:36:06;;;;;;;17.92;11.20;;;;;;;16.03;72.09;97694.81;4237834;83;21056;-85
2021/05/13 00:42:08;;;;;;;11.15;9.15;;;;;;;16.03;72.65;97689.30;4247465;83;21068;-84
2021/05/13 00:48:16;;;;;;;16.90;10.50;;;;;;;16.03;72.70;97683.77;4245661;82;21119;-83
2021/05/13 00:54:18;;;;;;;16.77;10.90;;;;;;;16.06;73.02;97677.37;4243539;83;22283;-83
2021/05/13 01:06:41;;;;;;;14.65;11.25;;;;;;;16.01;73.52;97676.53;4261660;83;21057;-83
2021/05/13 01:12:43;;;;;;;17.62;10.75;;;;;;;15.97;74.01;97671.15;4257142;83;21076;-85
2021/05/13 01:18:45;;;;;;;15.32;10.65;;;;;;;16.09;73.86;97667.59;4256450;83;21612;-84
2021/05/13 01:24:47;;;;;;;13.95;10.78;;;;;;;16.14;73.99;97662.91;4259560;83;21074;-83
2021/05/13 01:30:51;;;;;;;18.95;10.90;;;;;;;16.19;74.09;97642.25;4225998;83;21188;-83
2021/05/13 01:36:53;;;;;;;13.03;9.08;;;;;;;16.23;74.12;97639.53;4180370;84;21341;-83
2021/05/13 01:42:54;;;;;;;13.93;11.28;;;;;;;16.33;74.06;97634.88;4172259;84;21041;-84
2021/05/13 01:48:56;;;;;;;15.55;12.47;;;;;;;16.41;74.05;97630.67;4174970;84;21070;-84
2021/05/13 01:54:57;;;;;;;15.13;10.05;;;;;;;16.38;74.13;97623.28;4161092;84;21093;-84
2021/05/13 02:00:58;;;;;;;15.38;10.50;;;;;;;16.38;74.10;97606.70;4189191;84;21105;-84
2021/05/13 02:07:00;;;;;;;17.07;12.05;;;;;;;16.42;73.92;97610.89;4194461;84;21081;-83
2021/05/13 02:13:01;;;;;;;15.05;11.97;;;;;;;16.45;73.81;97609.24;4192616;84;22046;-84
2021/05/13 02:19:03;;;;;;;18.42;12.00;;;;;;;16.42;73.78;97601.22;4182326;83;21085;-84
2021/05/13 02:25:07;;;;;;;12.85;11.30;;;;;;;16.46;73.71;97601.14;4192877;84;21109;-83
2021/05/13 02:31:08;;;;;;;19.32;15.30;;;;;;;16.55;73.53;97600.58;4194028;83;21084;-84
2021/05/13 02:37:09;;;;;;;13.95;8.65;;;;;;;16.46;73.54;97595.61;4162072;84;26054;-83
2021/05/13 02:43:11;;;;;;;13.40;8.05;;;;;;;15.83;73.23;97596.30;4248751;83;21885;-83
2021/05/13 02:49:12;;;;;;;9.28;7.50;;;;;;;15.44;72.78;97594.77;4230566;83;21072;-84
2021/05/13 02:55:14;;;;;;;14.70;6.90;;;;;;;15.29;72.33;97589.47;4215938;83;21620;-84
2021/05/13 03:01:29;;;;;;;10.88;6.87;;;;;;;15.16;72.44;97582.55;4238041;83;21567;-84
2021/05/13 03:07:36;;;;;;;9.25;6.97;;;;;;;15.05;71.97;97587.61;4227540;83;21044;-83
2021/05/13 03:13:35;;;;;;;11.00;6.78;;;;;;;14.92;72.06;97575.80;4190597;84;21596;-86
2021/05/13 03:19:51;;;;;;;13.98;6.40;;;;;;;14.79;71.81;97574.98;4104985;85;21116;-84
2021/05/13 03:25:51;;;;;;;10.68;6.22;;;;;;;14.73;71.77;97562.17;4168647;84;21088;-83
2021/05/13 03:31:48;;;;;;;16.02;7.33;;;;;;;14.86;72.17;97562.37;4087637;83;229598;-84
2021/05/13 03:37:51;;;;;;;9.43;7.00;;;;;;;14.90;71.55;97560.89;4131086;85;21091;-83
2021/05/13 03:43:52;;;;;;;13.18;7.37;;;;;;;14.76;71.49;97560.70;4153557;84;21084;-84
2021/05/13 03:49:54;;;;;;;11.88;6.53;;;;;;;14.65;71.55;97556.69;4134762;85;21577;-83
2021/05/13 03:55:56;;;;;;;11.03;6.78;;;;;;;14.60;71.65;97558.59;4143333;85;21069;-83
2021/05/13 04:02:08;;;;;;;12.75;7.53;;;;;;;14.54;71.19;97549.33;4151404;85;21067;-82
2021/05/13 04:08:07;;;;;;;9.80;7.15;;;;;;;14.41;70.88;97554.78;4159569;85;21042;-83
2021/05/13 04:14:10;;;;;;;13.83;6.45;;;;;;;14.29;70.52;97550.00;4160067;85;21603;-83
2021/05/13 04:20:12;;;;;;;12.85;6.55;;;;;;;14.18;70.51;97544.76;4158985;84;21176;-85
2021/05/13 04:26:14;;;;;;;14.20;6.83;;;;;;;14.22;70.51;97532.88;4158107;85;21180;-83
2021/05/13 04:32:15;;;;;;;11.55;6.42;;;;;;;14.31;70.52;97524.80;4157920;84;21078;-83
2021/05/13 04:38:18;;;;;;;12.95;6.95;;;;;;;14.30;70.33;97529.52;4164738;84;22289;-82
2021/05/13 04:44:22;;;;;;;11.60;7.03;;;;;;;14.36;70.29;97529.78;4166868;84;21121;-82
2021/05/13 04:50:24;;;;;;;14.78;7.80;;;;;;;14.30;70.26;97526.77;4161488;84;21082;-83
2021/05/13 04:56:26;;;;;;;15.28;7.35;;;;;;;14.35;70.26;97527.62;4120089;84;30522;-82
2021/05/13 05:02:29;;;;;;;13.03;7.70;;;;;;;14.40;70.04;97516.67;4074396;86;21564;-82
2021/05/13 05:08:31;;;;;;;13.30;7.72;;;;;;;14.43;69.83;97524.84;4066424;86;21066;-83
2021/05/13 05:14:33;;;;;;;13.40;8.30;;;;;;;14.40;69.53;97517.46;4074888;86;21672;-82
2021/05/13 05:20:34;;;;;;;13.53;7.22;;;;;;;14.46;69.48;97510.20;4074206;86;21720;-83
2021/05/13 05:26:36;;;;;;;14.50;8.78;;;;;;;14.67;69.33;97507.46;4074034;87;21145;-82
2021/05/13 05:32:37;;;;;;;25.23;9.13;;;;;;;14.87;68.93;97495.06;4051241;87;21846;-82
2021/05/13 05:38:38;;;;;;;18.32;8.55;;;;;;;15.00;68.51;97503.34;4064620;87;21082;-82
2021/05/13 05:44:40;;;;;;;16.32;8.03;;;;;;;15.04;68.31;97499.27;4067048;87;21645;-82
2021/05/13 05:50:43;;;;;;;14.60;7.83;;;;;;;15.07;67.62;97498.38;4062960;86;21110;-83
2021/05/13 05:56:44;;;;;;;15.72;7.10;;;;;;;15.12;67.29;97505.33;4063505;86;21609;-83
2021/05/13 06:02:46;;;;;;;20.17;7.40;;;;;;;15.31;67.25;97496.07;4060544;87;22318;-83
2021/05/13 06:08:47;;;;;;;15.50;7.92;;;;;;;15.42;66.69;97495.16;4058481;86;21245;-83
2021/05/13 06:14:50;;;;;;;15.90;7.85;;;;;;;15.55;66.56;97497.31;4050599;86;21091;-82
2021/05/13 06:20:51;;;;;;;18.00;7.87;;;;;;;15.69;66.34;97498.98;4047859;87;21146;-82
2021/05/13 06:27:04;;;;;;;23.07;10.30;;;;;;;15.84;66.33;97502.64;4043237;86;21082;-83
2021/05/13 06:33:05;;;;;;;24.18;10.05;;;;;;;15.99;66.00;97503.10;4060306;86;21208;-82
2021/05/13 06:39:08;;;;;;;20.20;9.55;;;;;;;16.15;65.54;97499.41;4068445;86;21093;-81
2021/05/13 06:45:11;;;;;;;16.23;9.35;;;;;;;16.33;65.18;97505.09;4069843;87;21070;-82
2021/05/13 06:51:13;;;;;;;24.07;12.70;;;;;;;16.33;64.78;97496.21;4059054;86;21150;-83
2021/05/13 06:57:14;;;;;;;27.93;12.75;;;;;;;16.60;64.45;97498.44;4060260;86;21153;-83
2021/05/13 07:03:16;;;;;;;29.48;14.25;;;;;;;16.78;64.90;97501.30;3981833;88;21668;-83
2021/05/13 07:09:17;;;;;;;18.67;11.22;;;;;;;16.70;64.67;97491.73;3929884;88;21219;-83
2021/05/13 07:15:21;;;;;;;23.18;13.72;;;;;;;17.09;64.46;97489.64;3924371;89;22327;-82
2021/05/13 07:21:22;;;;;;;29.23;12.30;;;;;;;17.46;63.84;97482.30;3917864;90;21104;-84
2021/05/13 07:27:24;;;;;;;26.37;14.03;;;;;;;17.46;63.91;97474.76;3991120;89;21158;-84
2021/05/13 07:33:26;;;;;;;24.37;13.13;;;;;;;17.72;63.61;97469.16;3979330;87;21069;-83
2021/05/13 07:39:28;;;;;;;25.08;12.85;;;;;;;17.81;63.64;97460.86;3968039;89;21153;-84
2021/05/13 07:45:30;;;;;;;27.27;13.05;;;;;;;18.17;62.57;97455.95;3918296;90;21122;-84
2021/05/13 07:51:32;;;;;;;21.60;11.85;;;;;;;18.41;62.64;97453.53;3913233;88;21140;-84
2021/05/13 07:57:34;;;;;;;23.40;13.53;;;;;;;18.52;62.35;97448.90;3925654;88;21147;-83
2021/05/13 08:03:35;;;;;;;22.73;14.38;;;;;;;18.77;61.93;97447.77;3908896;90;21125;-83
2021/05/13 08:09:37;;;;;;;26.00;13.50;;;;;;;18.82;60.30;97443.76;3970412;88;21195;-83
2021/05/13 08:15:38;;;;;;;20.57;12.55;;;;;;;18.80;60.00;97432.36;3924881;89;21144;-82
2021/05/13 08:21:39;;;;;;;17.90;11.10;;;;;;;18.57;58.47;97435.81;3924362;88;21143;-83
2021/05/13 08:27:41;;;;;;;23.70;13.18;;;;;;;18.91;59.10;97428.48;3922086;89;21132;-82
2021/05/13 08:33:43;;;;;;;22.67;12.50;;;;;;;18.97;58.98;97428.59;3915919;88;21172;-82
2021/05/13 08:39:44;;;;;;;19.10;12.75;;;;;;;19.02;57.85;97429.36;3922228;89;21116;-83
2021/05/13 08:45:45;;;;;;;24.25;13.20;;;;;;;18.73;58.08;97431.28;3911751;90;21157;-83
2021/05/13 08:51:47;;;;;;;21.73;13.55;;;;;;;18.96;58.79;97425.69;3918845;90;21138;-83
2021/05/13 08:57:48;;;;;;;29.55;14.20;;;;;;;19.72;58.71;97411.44;3928846;89;21076;-83
2021/05/13 09:03:53;;;;;;;20.75;13.03;;;;;;;20.58;57.82;97405.81;3912151;90;21640;-83
2021/05/13 09:10:09;;;;;;;27.13;14.43;;;;;;;21.14;57.98;97407.64;3897882;90;21121;-82
2021/05/13 09:16:35;;;;;;;25.80;14.30;;;;;;;20.94;55.91;97413.11;3920079;89;21120;-83
2021/05/13 09:22:35;;;;;;;28.23;12.73;;;;;;;21.19;57.44;97407.61;3910701;90;21129;-83
2021/05/13 09:28:38;;;;;;;22.02;12.43;;;;;;;21.48;56.89;97397.77;3918720;89;21128;-83
2021/05/13 09:34:41;;;;;;;23.07;15.43;;;;;;;21.44;56.90;97409.72;3901705;89;21868;-83
2021/05/13 09:40:52;;;;;;;33.08;20.68;;;;;;;21.80;56.64;97390.38;4013865;87;21128;-83
2021/05/13 09:46:55;;;;;;;31.00;20.37;;;;;;;22.00;56.05;97382.00;3945014;88;21663;-83
2021/05/13 09:52:57;;;;;;;29.70;17.98;;;;;;;21.88;56.13;97388.06;3949498;89;21139;-84
2021/05/13 09:59:23;;;;;;;28.38;18.75;;;;;;;22.12;56.01;97367.70;4013705;87;21569;-84
2021/05/13 10:05:26;;;;;;;30.82;21.10;;;;;;;22.29;55.26;97367.88;4054824;86;21724;-83
2021/05/13 10:11:28;;;;;;;27.00;18.00;;;;;;;22.29;55.12;97360.91;4067000;86;22552;-89
2021/05/13 10:17:31;;;;;;;27.42;18.77;;;;;;;22.43;55.14;97357.23;4068215;87;21105;-83
2021/05/13 10:23:34;;;;;;;23.12;17.05;;;;;;;22.04;54.19;97347.72;4070688;86;21078;-84
2021/05/13 10:29:36;;;;;;;23.02;13.55;;;;;;;22.04;55.09;97342.14;4018757;88;21052;-83
2021/05/13 10:35:41;;;;;;;18.05;12.98;;;;;;;22.15;55.02;97339.48;3923193;88;22117;-83
2021/05/13 10:41:43;;;;;;;16.50;12.85;;;;;;;22.08;54.87;97336.48;3932961;89;21081;-83
2021/05/13 10:47:45;;;;;;;19.52;12.75;;;;;;;22.00;54.83;97331.86;4050879;87;21078;-84
2021/05/13 10:53:46;;;;;;;21.30;12.63;;;;;;;21.65;54.63;97338.89;3987203;89;21101;-84
2021/05/13 11:00:18;;;;;;;19.27;13.72;;;;;;;21.44;54.95;97333.17;4000322;89;21090;-83
2021/05/13 11:06:43;;;;;;;15.40;11.95;;;;;;;21.13;55.29;97331.61;4001770;87;21149;-84
2021/05/13 11:12:45;;;;;;;21.62;13.18;;;;;;;21.00;55.72;97324.98;4054880;86;21698;-83
2021/05/13 11:18:46;;;;;;;19.62;12.05;;;;;;;20.96;55.69;97325.81;4001530;84;26849;-84
2021/05/13 11:24:51;;;;;;;20.37;13.95;;;;;;;21.09;56.11;97315.76;4084807;87;21164;-84
2021/05/13 11:30:58;;;;;;;19.52;14.33;;;;;;;21.09;55.94;97315.14;4036670;87;21191;-83
2021/05/13 11:36:59;;;;;;;22.32;14.38;;;;;;;20.98;57.21;97295.52;4045124;87;21362;-84
2021/05/13 11:43:24;;;;;;;21.27;14.20;;;;;;;21.13;56.54;97300.39;4070593;87;21104;-83
2021/05/13 11:49:31;;;;;;;22.15;15.88;;;;;;;21.20;56.86;97304.78;3968014;88;21143;-84
2021/05/13 11:55:33;;;;;;;22.13;15.15;;;;;;;21.21;55.94;97306.30;3989239;87;21150;-84
2021/05/13 12:01:42;;;;;;;27.27;15.45;;;;;;;20.89;55.95;97305.31;4054757;87;21116;-84
2021/05/13 12:07:43;;;;;;;22.87;14.45;;;;;;;21.15;55.99;97306.24;4050234;87;21184;-83
2021/05/13 12:13:46;;;;;;;21.05;12.90;;;;;;;21.43;55.74;97302.42;4037579;87;21099;-84
2021/05/13 12:19:47;;;;;;;18.73;15.20;;;;;;;21.41;55.69;97301.52;4043555;87;21116;-83
2021/05/13 12:25:49;;;;;;;21.73;15.95;;;;;;;21.34;56.70;97292.20;3981257;88;21760;-84
2021/05/13 12:31:51;;;;;;;19.20;14.45;;;;;;;20.90;56.84;97296.36;3982900;88;21069;-84
2021/05/13 12:37:53;;;;;;;23.55;15.65;;;;;;;20.36;57.92;97306.11;4039725;86;21104;-87
2021/05/13 12:44:10;;;;;;;20.23;16.20;;;;;;;19.90;61.51;97300.25;4124434;85;21118;-84
2021/05/13 12:50:12;;;;;;;22.90;16.20;;;;;;;19.46;61.81;97295.83;4128380;85;21652;-83
2021/05/13 12:56:32;;;;;;;20.43;14.98;;;;;;;19.08;63.18;97302.07;4128786;85;21085;-83
2021/05/13 13:02:34;;;;;;;20.45;15.88;;;;;;;19.00;63.39;97307.03;4136185;85;21095;-83
2021/05/13 13:08:51;;;;;;;26.33;16.75;;;;;;;18.85;65.09;97301.44;4134075;85;21119;-83
2021/05/13 13:14:53;;;;;;;19.80;14.95;;;;;;;18.65;66.62;97305.39;4125878;85;21101;-85
2021/05/13 13:20:55;;;;;;;20.30;15.58;;;;;;;18.47;68.60;97308.98;4117223;85;21055;-84
2021/05/13 13:27:01;;;;;;;21.85;14.20;;;;;;;18.22;68.69;97317.65;4146634;85;21083;-83
2021/05/13 13:33:18;;;;;;;22.65;17.15;;;;;;;17.98;68.71;97316.77;4123773;85;21107;-84
2021/05/13 13:39:19;;;;;;;22.80;16.80;;;;;;;17.67;70.73;97314.02;4091319;86;22467;-85
2021/05/13 13:45:21;;;;;;;17.37;13.35;;;;;;;17.37;71.67;97320.45;4069409;86;21077;-83
2021/05/13 13:51:22;;;;;;;17.27;10.32;;;;;;;17.03;73.36;97332.52;4089317;86;21643;-82
2021/05/13 13:57:24;;;;;;;12.03;7.55;;;;;;;16.67;72.37;97329.62;4098938;86;21096;-83
2021/05/13 14:03:25;;;;;;;11.83;7.10;;;;;;;16.52;72.33;97303.80;3998617;87;21089;-82
2021/05/13 14:09:26;;;;;;;6.72;4.05;;;;;;;16.49;71.95;97313.73;4007567;87;21140;-82
2021/05/13 14:15:28;;;;;;;4.87;3.02;;;;;;;16.49;71.70;97344.12;4010838;87;21432;-82
2021/05/13 14:21:30;;;;;;;7.03;3.85;;;;;;;16.45;71.20;97341.34;4083381;86;21065;-85
2021/05/13 14:27:32;;;;;;;8.48;3.67;;;;;;;16.19;71.38;97321.41;4053551;86;21069;-82
2021/05/13 14:33:33;;;;;;;7.03;3.40;;;;;;;15.86;71.72;97315.35;4069195;86;21061;-82
2021/05/13 14:39:35;;;;;;;5.67;4.33;;;;;;;15.88;72.32;97313.67;4029443;86;21085;-82
2021/05/13 14:45:37;;;;;;;10.30;5.85;;;;;;;16.10;72.39;97313.68;4052219;87;21351;-81
2021/05/13 14:51:38;;;;;;;8.78;6.17;;;;;;;16.01;72.38;97317.73;4057991;86;21067;-86
2021/05/13 14:57:48;;;;;;;9.88;6.12;;;;;;;15.87;72.93;97332.84;4017463;88;21091;-82
2021/05/13 15:03:45;;;;;;;9.48;4.95;;;;;;;15.82;72.91;97340.30;4063214;87;21143;-82
2021/05/13 15:09:47;;;;;;;9.30;5.60;;;;;;;15.46;74.12;97349.66;4034833;87;21139;-84
2021/05/13 15:15:48;;;;;;;10.08;5.30;;;;;;;15.29;74.55;97349.02;4062589;87;21629;-82
2021/05/13 15:21:49;;;;;;;8.43;5.45;;;;;;;15.52;74.73;97345.89;4017115;86;21060;-82
2021/05/13 15:27:51;;;;;;;14.13;8.00;;;;;;;15.72;74.89;97331.81;3978239;88;21127;-81
2021/05/13 15:33:52;;;;;;;16.05;6.30;;;;;;;15.83;74.83;97335.56;3989427;89;21090;-82
2021/05/13 15:39:54;;;;;;;10.20;6.50;;;;;;;15.85;75.04;97321.47;4009659;87;21095;-82
2021/05/13 15:45:58;;;;;;;10.85;7.70;;;;;;;16.08;74.94;97331.30;4004588;87;21081;-82
2021/05/13 15:51:59;;;;;;;12.47;7.17;;;;;;;16.18;75.19;97322.61;4003582;87;21129;-82
2021/05/13 15:58:00;;;;;;;8.63;6.50;;;;;;;16.34;75.04;97316.09;4059786;86;21171;-82
2021/05/13 16:04:03;;;;;;;9.90;6.87;;;;;;;16.09;74.75;97325.32;4005207;87;21119;-82
2021/05/13 16:10:05;;;;;;;10.15;6.95;;;;;;;16.00;75.02;97321.13;4109111;86;21148;-83
2021/05/13 16:16:07;;;;;;;13.53;8.10;;;;;;;15.98;75.19;97310.36;4014774;87;21692;-83
2021/05/13 16:22:08;;;;;;;13.22;7.20;;;;;;;15.78;76.16;97313.47;4055994;86;21093;-83
2021/05/13 16:28:10;;;;;;;11.03;7.22;;;;;;;15.80;76.21;97320.69;4076250;86;21692;-84
2021/05/13 16:34:11;;;;;;;10.28;6.62;;;;;;;15.77;76.04;97332.59;4081892;86;21124;-84
2021/05/13 16:40:15;;;;;;;11.35;6.35;;;;;;;15.62;76.44;97339.84;3932343;87;10000209;-82
2021/05/13 16:46:18;;;;;;;13.40;7.25;;;;;;;15.52;76.67;97340.97;4046789;87;21475;-84
2021/05/13 16:52:19;;;;;;;11.10;6.78;;;;;;;15.56;76.50;97343.80;4033952;87;21097;-82
2021/05/13 16:58:20;;;;;;;8.70;5.95;;;;;;;15.51;76.46;97358.75;4022943;87;21088;-81
2021/05/13 17:04:32;;;;;;;11.33;6.60;;;;;;;15.54;76.36;97350.36;4039751;87;21940;-82
2021/05/13 17:10:31;;;;;;;11.25;6.58;;;;;;;15.58;76.67;97345.48;4028445;87;21675;-82
2021/05/13 17:16:35;;;;;;;10.88;6.87;;;;;;;15.61;76.89;97332.17;4052988;87;21711;-83
2021/05/13 17:22:37;;;;;;;11.50;8.05;;;;;;;15.65;76.82;97334.81;3935189;89;21056;-82
2021/05/13 17:28:41;;;;;;;12.80;8.40;;;;;;;15.75;76.73;97337.03;3890885;89;21129;-82
2021/05/13 17:34:41;;;;;;;12.53;8.60;;;;;;;15.70;76.75;97350.80;3874722;87;21130;-82
2021/05/13 17:40:43;;;;;;;15.13;7.47;;;;;;;15.68;76.73;97345.58;4019777;86;21190;-82
2021/05/13 17:46:44;;;;;;;10.32;6.92;;;;;;;15.60;76.66;97354.69;3977768;89;21714;-82
2021/05/13 17:52:45;;;;;;;10.90;6.85;;;;;;;15.55;76.50;97364.93;3979613;89;21139;-82
2021/05/13 17:58:47;;;;;;;13.88;7.53;;;;;;;15.55;76.51;97371.83;3984529;89;21092;-82
2021/05/13 18:04:48;;;;;;;14.10;7.97;;;;;;;15.56;76.45;97372.75;4019546;87;21040;-81
2021/05/13 18:10:52;;;;;;;10.70;7.37;;;;;;;15.37;76.37;97367.47;3966561;89;21072;-82
2021/05/13 18:16:54;;;;;;;12.40;8.35;;;;;;;15.25;76.57;97373.80;4006228;88;21215;-82
2021/05/13 18:22:58;;;;;;;11.78;8.10;;;;;;;15.09;76.95;97382.19;3999139;88;21193;-83
2021/05/13 18:28:58;;;;;;;13.75;7.75;;;;;;;15.10;77.04;97381.75;3995927;88;21707;-82
2021/05/13 18:35:00;;;;;;;11.22;7.15;;;;;;;15.10;77.41;97380.97;4027194;87;21144;-84
2021/05/13 18:41:03;;;;;;;12.20;7.97;;;;;;;15.09;77.57;97389.08;3874678;90;21223;-82
2021/05/13 18:47:04;;;;;;;12.10;7.97;;;;;;;15.21;77.56;97393.80;3767286;90;10000392;-82
2021/05/13 18:53:08;;;;;;;16.37;8.38;;;;;;;15.21;77.56;97393.80;3870849;90;21092;-82
2021/05/13 18:59:10;;;;;;;16.25;10.13;;;;;;;15.03;77.71;97400.50;3887941;89;21184;-82
2021/05/13 19:05:15;;;;;;;15.43;9.70;;;;;;;14.79;78.41;97403.41;3875807;90;21127;-83
2021/05/13 19:11:17;;;;;;;16.77;10.45;;;;;;;14.79;78.79;97411.67;3882855;90;22097;-81
2021/05/13 19:17:18;;;;;;;15.80;9.88;;;;;;;14.81;79.01;97432.08;3885477;89;21151;-83
2021/05/13 19:23:19;;;;;;;12.23;8.13;;;;;;;14.60;79.39;97438.21;3956287;89;21132;-83
2021/05/13 19:29:45;;;;;;;13.58;9.60;;;;;;;14.78;79.45;97448.11;3943939;88;21135;-83
2021/05/13 19:35:35;;;;;;;14.85;10.53;;;;;;;14.96;79.20;97448.92;3891567;89;21101;-84
2021/05/13 19:41:38;;;;;;;18.25;9.18;;;;;;;15.00;79.24;97442.09;3993745;89;22307;-85
2021/05/13 19:47:40;;;;;;;15.60;9.88;;;;;;;14.95;79.21;97445.42;3997892;89;21143;-82
2021/05/13 19:53:41;;;;;;;18.25;11.33;;;;;;;14.80;80.00;97453.93;3997830;89;21632;-83
2021/05/13 19:59:43;;;;;;;18.52;10.78;;;;;;;14.63;80.20;97462.71;3997123;89;21137;-82
2021/05/13 20:12:06;;;;;;;14.03;9.93;;;;;;;14.58;80.24;97459.14;3993254;89;21080;-82
2021/05/13 20:18:00;;;;;;;19.40;11.33;;;;;;;14.57;80.41;97454.83;3997330;87;21212;-85
2021/05/13 20:24:05;;;;;;;13.98;10.13;;;;;;;14.41;80.81;97439.16;4030374;88;21093;-82
2021/05/13 20:30:09;;;;;;;16.07;8.98;;;;;;;14.31;81.10;97449.88;3998757;88;21738;-83
2021/05/13 20:36:11;;;;;;;13.45;9.73;;;;;;;14.36;81.12;97455.45;4008386;86;21069;-82
2021/05/13 20:42:13;;;;;;;14.55;10.03;;;;;;;14.34;81.22;97463.37;4066815;87;21224;-83
2021/05/13 20:48:33;;;;;;;10.65;7.72;;;;;;;14.38;81.17;97471.69;4035537;87;21088;-83
2021/05/13 21:00:52;;;;;;;14.18;8.88;;;;;;;14.44;81.11;97475.45;4017059;87;21093;-82
2021/05/13 21:13:11;;;;;;;20.05;8.98;;;;;;;14.43;81.19;97473.91;4035335;86;21112;-82
2021/05/13 21:25:51;;;;;;;14.47;10.45;;;;;;;14.41;81.18;97479.08;4063866;86;21113;-82
2021/05/13 21:31:40;;;;;;;16.73;12.90;;;;;;;14.36;81.25;97471.97;4052767;87;21072;-82
2021/05/13 21:37:41;;;;;;;18.90;12.05;;;;;;;14.28;81.43;97470.02;4087612;86;21136;-82
2021/05/13 21:43:43;;;;;;;18.02;9.48;;;;;;;14.18;81.93;97464.17;4004405;88;21625;-82
2021/05/13 21:49:45;;;;;;;14.60;9.53;;;;;;;14.13;82.16;97474.33;4038857;86;22262;-84
2021/05/13 21:55:46;;;;;;;12.93;8.98;;;;;;;14.11;82.91;97466.50;3976830;88;21203;-83
2021/05/13 22:01:47;;;;;;;17.15;9.50;;;;;;;13.98;83.32;97464.30;4035697;86;21742;-82
2021/05/13 22:07:49;;;;;;;11.50;8.93;;;;;;;13.92;83.98;97464.66;4030563;86;21080;-82
2021/05/13 22:13:50;;;;;;;15.30;10.18;;;;;;;13.95;83.36;97463.03;4048897;86;21120;-82
2021/05/13 22:19:55;;;;;;;12.20;8.60;;;;;;;13.95;83.42;97455.53;4047635;87;21624;-83
2021/05/13 22:25:56;;;;;;;17.48;9.80;;;;;;;13.97;83.19;97457.84;3987122;88;21716;-83
2021/05/13 22:31:57;;;;;;;15.93;11.22;;;;;;;13.98;83.02;97458.04;4068514;86;21140;-83
2021/05/13 22:37:58;;;;;;;17.70;11.65;;;;;;;13.97;82.99;97464.14;4059473;86;21948;-84
2021/05/13 22:44:00;;;;;;;14.40;10.68;;;;;;;13.98;83.48;97460.79;4022795;87;21112;-83
2021/05/13 22:50:04;;;;;;;16.17;11.70;;;;;;;13.95;82.91;97472.04;4004035;87;21112;-81
2021/05/13 22:56:15;;;;;;;13.80;10.90;;;;;;;13.98;82.82;97475.30;4029933;87;21121;-83
2021/05/13 23:02:11;;;;;;;15.73;11.20;;;;;;;14.04;82.63;97477.72;4053203;87;21112;-82
2021/05/13 23:08:13;;;;;;;15.25;9.60;;;;;;;13.94;82.51;97470.50;4064659;87;21479;-83
2021/05/13 23:20:23;;;;;;;16.77;10.15;;;;;;;13.91;82.46;97470.59;4052310;86;21124;-82
2021/05/13 23:26:26;;;;;;;15.88;10.15;;;;;;;13.84;82.56;97462.54;4063375;87;21125;-83
2021/05/13 23:32:27;;;;;;;14.70;10.45;;;;;;;13.83;82.71;97465.88;4070183;87;21597;-83
2021/05/13 23:38:28;;;;;;;8.68;7.08;;;;;;;13.72;82.65;97465.38;4054014;86;21119;-82
2021/05/13 23:44:29;;;;;;;9.50;7.30;;;;;;;13.67;82.78;97465.15;3968243;89;21162;-81
2021/05/13 23:50:31;;;;;;;11.60;7.78;;;;;;;13.62;82.88;97471.94;4043325;87;21051;-82
2021/05/13 23:56:32;;;;;;;10.30;7.55;;;;;;;13.55;82.93;97464.45;3974715;88;21048;-82
